createdAt,value
2018-07-08T00:02:56.131Z,24.70
2018-07-08T00:05:23.329Z,24.70
2018-07-08T00:07:50.517Z,24.70
2018-07-08T00:10:18.110Z,24.70
2018-07-08T00:12:45.327Z,24.70
2018-07-08T00:15:12.525Z,24.60
2018-07-08T00:17:40.075Z,24.70
2018-07-08T00:22:34.529Z,24.60
2018-07-08T00:27:28.956Z,24.50
2018-07-08T00:29:56.141Z,24.50
2018-07-08T00:32:23.306Z,24.50
2018-07-08T00:34:50.496Z,24.50
2018-07-08T00:37:17.669Z,24.50
2018-07-08T00:42:14.133Z,24.50
2018-07-08T00:47:08.517Z,24.60
2018-07-08T00:49:35.698Z,24.50
2018-07-08T00:54:30.099Z,24.50
2018-07-08T00:59:26.483Z,24.50
2018-07-08T01:01:53.645Z,24.50
2018-07-08T01:04:20.843Z,24.50
2018-07-08T01:06:48.020Z,24.50
2018-07-08T01:11:42.745Z,24.50
2018-07-08T01:14:09.901Z,24.50
2018-07-08T01:19:04.369Z,24.50
2018-07-08T01:21:31.860Z,24.50
2018-07-08T01:23:59.069Z,24.60
2018-07-08T01:26:26.285Z,24.60
2018-07-08T01:31:21.169Z,24.60
2018-07-08T01:33:48.334Z,24.50
2018-07-08T01:36:15.530Z,24.60
2018-07-08T01:38:42.685Z,24.50
2018-07-08T01:41:09.866Z,24.50
2018-07-08T01:43:37.096Z,24.50
2018-07-08T01:48:32.106Z,24.60
2018-07-08T01:50:59.281Z,24.60
2018-07-08T01:53:26.442Z,24.60
2018-07-08T02:00:48.366Z,24.60
2018-07-08T02:03:16.061Z,24.50
2018-07-08T02:05:43.281Z,24.50
2018-07-08T02:08:10.467Z,24.50
2018-07-08T02:10:37.942Z,24.50
2018-07-08T02:13:05.370Z,24.50
2018-07-08T02:15:32.585Z,24.50
2018-07-08T02:20:27.537Z,24.50
2018-07-08T02:22:54.767Z,24.50
2018-07-08T02:25:21.985Z,24.50
2018-07-08T02:27:49.817Z,24.50
2018-07-08T02:30:17.043Z,24.50
2018-07-08T02:35:11.441Z,24.40
2018-07-08T02:37:38.611Z,24.40
2018-07-08T02:40:06.159Z,24.40
2018-07-08T02:42:33.340Z,24.40
2018-07-08T02:47:28.137Z,24.40
2018-07-08T02:49:55.345Z,24.40
2018-07-08T02:52:22.818Z,24.40
2018-07-08T02:54:50.194Z,24.30
2018-07-08T02:57:17.885Z,24.30
2018-07-08T02:59:45.321Z,24.30
2018-07-08T03:02:12.487Z,24.30
2018-07-08T03:04:39.836Z,24.30
2018-07-08T03:07:07.097Z,24.30
2018-07-08T03:09:34.301Z,24.20
2018-07-08T03:12:01.496Z,24.20
2018-07-08T03:14:29.005Z,24.20
2018-07-08T03:16:56.183Z,24.10
2018-07-08T03:19:23.795Z,24.10
2018-07-08T03:21:51.265Z,24.10
2018-07-08T03:24:18.712Z,24.00
2018-07-08T03:26:45.885Z,24.00
2018-07-08T03:29:13.357Z,23.90
2018-07-08T03:31:40.695Z,23.90
2018-07-08T03:34:07.857Z,23.90
2018-07-08T03:36:35.445Z,23.80
2018-07-08T03:41:30.981Z,23.70
2018-07-08T03:43:58.150Z,23.70
2018-07-08T03:48:52.548Z,23.60
2018-07-08T03:51:19.725Z,23.50
2018-07-08T03:56:14.525Z,23.50
2018-07-08T03:58:41.693Z,23.40
2018-07-08T04:01:08.892Z,23.40
2018-07-08T04:03:36.066Z,23.40
2018-07-08T04:06:03.225Z,23.30
2018-07-08T04:08:30.386Z,23.30
2018-07-08T04:10:57.577Z,23.30
2018-07-08T04:15:51.961Z,23.30
2018-07-08T04:18:19.441Z,23.20
2018-07-08T04:20:46.629Z,23.20
2018-07-08T04:25:41.313Z,23.20
2018-07-08T04:28:08.481Z,23.20
2018-07-08T04:33:02.900Z,23.30
2018-07-08T04:37:58.189Z,23.40
2018-07-08T04:40:25.357Z,23.40
2018-07-08T04:42:52.522Z,23.40
2018-07-08T04:45:19.993Z,23.40
2018-07-08T04:47:47.158Z,23.40
2018-07-08T04:50:14.321Z,23.40
2018-07-08T04:55:08.981Z,23.40
2018-07-08T04:57:36.341Z,23.50
2018-07-08T05:00:03.808Z,23.40
2018-07-08T05:02:30.985Z,23.40
2018-07-08T05:04:58.229Z,23.50
2018-07-08T05:07:25.385Z,23.50
2018-07-08T05:09:52.833Z,23.60
2018-07-08T05:12:19.991Z,23.60
2018-07-08T05:14:47.149Z,23.60
2018-07-08T05:17:14.318Z,23.70
2018-07-08T05:19:41.763Z,23.70
2018-07-08T05:22:08.921Z,23.70
2018-07-08T05:24:36.109Z,23.80
2018-07-08T05:27:03.269Z,23.80
2018-07-08T05:29:30.471Z,23.80
2018-07-08T05:31:57.623Z,23.80
2018-07-08T05:34:24.787Z,23.80
2018-07-08T05:36:52.425Z,23.80
2018-07-08T05:39:19.623Z,23.90
2018-07-08T05:41:46.777Z,23.90
2018-07-08T05:44:14.277Z,23.90
2018-07-08T05:46:41.446Z,23.90
2018-07-08T05:49:08.607Z,24.00
2018-07-08T05:51:36.153Z,24.00
2018-07-08T05:54:03.325Z,24.00
2018-07-08T05:56:32.126Z,24.00
2018-07-08T06:01:26.518Z,24.00
2018-07-08T06:03:53.694Z,24.10
2018-07-08T06:08:48.085Z,24.10
2018-07-08T06:11:15.270Z,24.10
2018-07-08T06:16:09.817Z,24.10
2018-07-08T06:18:37.005Z,24.20
2018-07-08T06:21:04.497Z,24.20
2018-07-08T06:23:31.629Z,24.20
2018-07-08T06:25:58.957Z,24.30
2018-07-08T06:28:26.349Z,24.30
2018-07-08T06:30:53.514Z,24.30
2018-07-08T06:33:20.677Z,24.40
2018-07-08T06:35:47.850Z,24.40
2018-07-08T06:40:42.246Z,24.50
2018-07-08T06:43:09.394Z,24.60
2018-07-08T06:45:36.580Z,24.70
2018-07-08T06:48:03.777Z,24.80
2018-07-08T06:50:31.217Z,24.80
2018-07-08T06:52:58.393Z,24.80
2018-07-08T06:55:25.550Z,24.80
2018-07-08T06:57:54.337Z,24.90
2018-07-08T07:00:21.477Z,24.90
2018-07-08T07:02:48.669Z,25.00
2018-07-08T07:05:19.925Z,25.00
2018-07-08T07:07:47.089Z,25.10
2018-07-08T07:10:14.260Z,25.10
2018-07-08T07:15:10.701Z,25.00
2018-07-08T07:17:37.861Z,25.10
2018-07-08T07:22:32.248Z,25.10
2018-07-08T07:24:59.409Z,25.00
2018-07-08T07:27:26.881Z,25.00
2018-07-08T07:29:54.057Z,25.10
2018-07-08T07:34:50.402Z,25.00
2018-07-08T07:37:17.557Z,25.00
2018-07-08T07:39:44.712Z,25.00
2018-07-08T07:42:11.897Z,25.00
2018-07-08T07:47:06.279Z,25.20
2018-07-08T07:49:33.462Z,25.10
2018-07-08T07:54:28.269Z,25.10
2018-07-08T07:56:55.413Z,25.10
2018-07-08T07:59:22.573Z,25.10
2018-07-08T08:01:55.762Z,25.20
2018-07-08T08:04:22.948Z,25.20
2018-07-08T08:09:17.305Z,25.20
2018-07-08T08:11:44.457Z,25.30
2018-07-08T08:14:11.687Z,25.30
2018-07-08T08:16:38.849Z,25.40
2018-07-08T08:19:06.015Z,25.40
2018-07-08T08:21:33.185Z,25.50
2018-07-08T08:24:00.351Z,25.50
2018-07-08T08:26:28.572Z,25.50
2018-07-08T08:28:55.701Z,25.50
2018-07-08T08:31:22.861Z,25.50
2018-07-08T08:35:07.768Z,25.60
2018-07-08T08:37:36.869Z,25.60
2018-07-08T08:40:04.453Z,25.70
2018-07-08T08:42:31.622Z,25.70
2018-07-08T08:44:59.232Z,25.70
2018-07-08T08:47:26.859Z,25.70
2018-07-08T08:49:54.581Z,25.70
2018-07-08T08:52:21.773Z,25.70
2018-07-08T08:54:49.097Z,25.80
2018-07-08T08:57:16.271Z,25.80
2018-07-08T08:59:43.447Z,25.80
2018-07-08T09:02:10.749Z,25.80
2018-07-08T09:04:38.973Z,25.90
2018-07-08T09:07:06.717Z,25.90
2018-07-08T09:09:33.957Z,25.90
2018-07-08T09:12:01.463Z,25.90
2018-07-08T09:14:28.617Z,25.90
2018-07-08T09:16:55.773Z,25.90
2018-07-08T09:19:23.848Z,25.90
2018-07-08T09:21:51.690Z,25.90
2018-07-08T09:24:18.864Z,25.90
2018-07-08T09:26:46.049Z,25.90
2018-07-08T09:29:13.239Z,25.90
2018-07-08T09:31:40.396Z,25.90
2018-07-08T09:34:07.574Z,25.80
2018-07-08T09:36:35.310Z,25.80
2018-07-08T09:39:03.547Z,25.80
2018-07-08T09:41:30.684Z,25.80
2018-07-08T09:43:57.880Z,25.80
2018-07-08T09:48:52.303Z,25.90
2018-07-08T09:53:46.653Z,26.00
2018-07-08T09:56:14.355Z,26.00
2018-07-08T09:58:41.517Z,26.10
2018-07-08T10:01:08.686Z,26.10
2018-07-08T10:06:04.573Z,26.10
2018-07-08T10:08:32.146Z,26.20
2018-07-08T10:10:59.708Z,26.30
2018-07-08T10:13:26.961Z,26.30
2018-07-08T10:15:54.125Z,26.40
2018-07-08T10:18:21.310Z,26.40
2018-07-08T10:20:48.493Z,26.40
2018-07-08T10:23:15.789Z,26.40
2018-07-08T10:25:43.570Z,26.40
2018-07-08T10:28:12.361Z,26.50
2018-07-08T10:30:40.089Z,26.60
2018-07-08T10:35:46.483Z,26.60
2018-07-08T10:38:13.686Z,26.70
2018-07-08T10:40:41.106Z,26.80
2018-07-08T10:43:08.269Z,26.80
2018-07-08T10:45:35.449Z,26.90
2018-07-08T10:48:02.933Z,26.80
2018-07-08T10:50:32.155Z,26.90
2018-07-08T10:52:59.305Z,26.80
2018-07-08T10:55:26.929Z,26.80
2018-07-08T10:57:54.021Z,26.80
2018-07-08T11:02:52.517Z,26.90
2018-07-08T11:05:19.671Z,26.80
2018-07-08T11:07:46.829Z,26.80
2018-07-08T11:10:14.397Z,26.80
2018-07-08T11:12:41.542Z,26.80
2018-07-08T11:15:08.704Z,26.80
2018-07-08T11:17:36.681Z,26.80
2018-07-08T11:20:03.853Z,26.80
2018-07-08T11:24:58.962Z,26.90
2018-07-08T11:27:26.242Z,26.90
2018-07-08T11:32:20.845Z,26.90
2018-07-08T11:34:48.014Z,26.90
2018-07-08T11:37:16.054Z,26.80
2018-07-08T11:39:43.205Z,26.80
2018-07-08T11:42:10.397Z,26.90
2018-07-08T11:44:38.158Z,26.80
2018-07-08T11:47:05.331Z,26.90
2018-07-08T11:51:59.925Z,26.90
2018-07-08T11:54:27.494Z,26.90
2018-07-08T11:56:54.651Z,27.00
2018-07-08T11:59:21.805Z,27.00
2018-07-08T12:01:48.990Z,27.00
2018-07-08T12:06:43.821Z,27.10
2018-07-08T12:11:38.607Z,27.00
2018-07-08T12:14:05.761Z,27.10
2018-07-08T12:16:32.917Z,27.10
2018-07-08T12:19:00.586Z,27.10
2018-07-08T12:21:27.749Z,27.10
2018-07-08T12:23:54.901Z,27.10
2018-07-08T12:26:22.462Z,27.20
2018-07-08T12:28:49.753Z,27.20
2018-07-08T12:33:44.133Z,27.20
2018-07-08T12:36:11.292Z,27.20
2018-07-08T12:38:38.785Z,27.20
2018-07-08T12:43:33.141Z,27.30
2018-07-08T12:46:04.305Z,27.30
2018-07-08T12:48:31.629Z,27.30
2018-07-08T12:50:58.797Z,27.40
2018-07-08T12:53:25.966Z,27.40
2018-07-08T12:55:53.131Z,27.40
2018-07-08T12:58:20.320Z,27.40
2018-07-08T13:03:15.010Z,27.40
2018-07-08T13:05:42.347Z,27.40
2018-07-08T13:08:09.520Z,27.40
2018-07-08T13:10:36.722Z,27.40
2018-07-08T13:13:03.897Z,27.40
2018-07-08T13:15:31.097Z,27.40
2018-07-08T13:17:58.600Z,27.40
2018-07-08T13:22:52.969Z,27.40
2018-07-08T13:25:20.435Z,27.40
2018-07-08T13:27:47.654Z,27.40
2018-07-08T13:30:14.909Z,27.50
2018-07-08T13:32:42.269Z,27.40
2018-07-08T13:35:09.396Z,27.50
2018-07-08T13:37:36.573Z,27.50
2018-07-08T13:40:04.161Z,27.50
2018-07-08T13:42:31.344Z,27.50
2018-07-08T13:44:58.506Z,27.50
2018-07-08T13:47:25.730Z,27.50
2018-07-08T13:52:20.035Z,27.60
2018-07-08T13:54:47.529Z,27.60
2018-07-08T13:57:14.698Z,27.60
2018-07-08T13:59:41.915Z,27.60
2018-07-08T14:02:09.091Z,27.60
2018-07-08T14:04:36.325Z,27.60
2018-07-08T14:07:03.528Z,27.60
2018-07-08T14:09:31.605Z,27.60
2018-07-08T14:14:26.020Z,27.60
2018-07-08T14:19:20.767Z,27.60
2018-07-08T14:21:47.966Z,27.60
2018-07-08T14:24:15.541Z,27.70
2018-07-08T14:26:42.721Z,27.70
2018-07-08T14:31:37.421Z,27.80
2018-07-08T14:34:04.645Z,27.80
2018-07-08T14:36:31.819Z,27.80
2018-07-08T14:38:59.017Z,27.80
2018-07-08T14:43:53.434Z,27.80
2018-07-08T14:48:48.106Z,27.80
2018-07-08T14:51:15.285Z,27.90
2018-07-08T14:56:09.678Z,27.80
2018-07-08T14:58:36.859Z,27.90
2018-07-08T15:01:04.036Z,27.80
2018-07-08T15:03:31.213Z,27.80
2018-07-08T15:05:58.385Z,27.80
2018-07-08T15:08:25.977Z,27.80
2018-07-08T15:10:53.141Z,27.80
2018-07-08T15:13:20.302Z,27.70
2018-07-08T15:18:15.137Z,27.70
2018-07-08T15:23:09.562Z,27.70
2018-07-08T15:25:36.761Z,27.70
2018-07-08T15:28:03.940Z,27.70
2018-07-08T15:32:59.819Z,27.60
2018-07-08T15:37:54.218Z,27.70
2018-07-08T15:42:48.942Z,27.60
2018-07-08T15:47:43.305Z,27.60
2018-07-08T15:50:10.469Z,27.60
2018-07-08T15:52:37.669Z,27.60
2018-07-08T15:57:34.521Z,27.60
2018-07-08T16:00:01.678Z,27.60
2018-07-08T16:07:25.806Z,27.50
2018-07-08T16:09:53.365Z,27.50
2018-07-08T16:12:20.550Z,27.50
2018-07-08T16:17:14.937Z,27.50
2018-07-08T16:19:42.098Z,27.50
2018-07-08T16:24:36.490Z,27.40
2018-07-08T16:27:03.646Z,27.40
2018-07-08T16:29:30.817Z,27.40
2018-07-08T16:31:58.886Z,27.40
2018-07-08T16:34:26.042Z,27.40
2018-07-08T16:36:53.218Z,27.40
2018-07-08T16:41:47.929Z,27.30
2018-07-08T16:44:15.107Z,27.30
2018-07-08T16:49:09.839Z,27.30
2018-07-08T16:51:37.088Z,27.20
2018-07-08T16:54:04.342Z,27.20
2018-07-08T16:56:31.526Z,27.20
2018-07-08T16:58:58.753Z,27.10
2018-07-08T17:03:53.458Z,27.10
2018-07-08T17:06:20.615Z,27.10
2018-07-08T17:11:17.365Z,27.10
2018-07-08T17:13:44.532Z,27.00
2018-07-08T17:18:38.968Z,27.00
2018-07-08T17:23:33.582Z,27.00
2018-07-08T17:26:00.755Z,27.00
2018-07-08T17:28:27.917Z,26.90
2018-07-08T17:30:55.087Z,27.00
2018-07-08T17:33:22.389Z,26.90
2018-07-08T17:35:49.438Z,26.90
2018-07-08T17:38:16.613Z,26.90
2018-07-08T17:43:10.990Z,26.90
2018-07-08T17:45:38.429Z,26.80
2018-07-08T17:48:05.585Z,26.80
2018-07-08T17:50:32.833Z,26.80
2018-07-08T17:53:01.157Z,26.80
2018-07-08T17:55:28.333Z,26.70
2018-07-08T18:00:23.002Z,26.70
2018-07-08T18:02:50.154Z,26.70
2018-07-08T18:05:17.541Z,26.60
2018-07-08T18:07:45.106Z,26.60
2018-07-08T18:10:12.324Z,26.60
2018-07-08T18:12:39.494Z,26.50
2018-07-08T18:15:06.673Z,26.50
2018-07-08T18:17:33.899Z,26.50
2018-07-08T18:20:01.065Z,26.60
2018-07-08T18:22:28.565Z,26.50
2018-07-08T18:24:55.753Z,26.60
2018-07-08T18:27:22.925Z,26.50
2018-07-08T18:29:51.042Z,26.50
2018-07-08T18:32:18.211Z,26.50
2018-07-08T18:34:45.380Z,26.60
2018-07-08T18:39:44.654Z,26.60
2018-07-08T18:42:11.841Z,26.50
2018-07-08T18:44:39.299Z,26.60
2018-07-08T18:47:06.467Z,26.60
2018-07-08T18:49:33.674Z,26.60
2018-07-08T18:52:00.907Z,26.70
2018-07-08T18:54:28.093Z,26.70
2018-07-08T18:56:55.279Z,26.70
2018-07-08T18:59:22.946Z,26.70
2018-07-08T19:01:50.011Z,26.70
2018-07-08T19:06:49.629Z,26.70
2018-07-08T19:09:16.798Z,26.60
2018-07-08T19:11:44.073Z,26.60
2018-07-08T19:16:38.882Z,26.50
2018-07-08T19:21:37.886Z,26.50
2018-07-08T19:24:05.324Z,26.50
2018-07-08T19:26:32.544Z,26.50
2018-07-08T19:29:00.152Z,26.50
2018-07-08T19:31:27.348Z,26.40
2018-07-08T19:36:22.024Z,26.40
2018-07-08T19:38:49.219Z,26.30
2018-07-08T19:43:44.061Z,26.40
2018-07-08T19:46:11.261Z,26.40
2018-07-08T19:48:38.446Z,26.30
2018-07-08T19:51:06.005Z,26.30
2018-07-08T19:53:33.211Z,26.30
2018-07-08T19:56:00.598Z,26.30
2018-07-08T19:58:28.132Z,26.20
2018-07-08T20:00:55.336Z,26.20
2018-07-08T20:05:51.389Z,26.20
2018-07-08T20:08:18.673Z,26.20
2018-07-08T20:10:45.873Z,26.20
2018-07-08T20:13:13.074Z,26.20
2018-07-08T20:15:40.290Z,26.10
2018-07-08T20:18:07.785Z,26.00
2018-07-08T20:20:34.962Z,26.00
2018-07-08T20:25:29.402Z,26.00
2018-07-08T20:27:56.981Z,25.90
2018-07-08T20:30:24.173Z,25.90
2018-07-08T20:32:51.350Z,25.90
2018-07-08T20:37:45.789Z,25.80
2018-07-08T20:40:13.025Z,25.80
2018-07-08T20:45:07.669Z,25.80
2018-07-08T20:47:35.290Z,25.80
2018-07-08T20:50:02.763Z,25.80
2018-07-08T20:54:57.213Z,25.80
2018-07-08T20:57:24.406Z,25.80
2018-07-08T20:59:52.525Z,25.80
2018-07-08T21:02:20.062Z,25.80
2018-07-08T21:04:47.246Z,25.80
2018-07-08T21:07:14.427Z,25.80
2018-07-08T21:09:41.637Z,25.80
2018-07-08T21:12:08.815Z,25.80
2018-07-08T21:17:05.325Z,25.90
2018-07-08T21:19:32.861Z,25.90
2018-07-08T21:22:00.070Z,25.90
2018-07-08T21:24:27.249Z,25.90
2018-07-08T21:29:21.813Z,25.80
2018-07-08T21:31:49.053Z,25.80
2018-07-08T21:34:16.252Z,25.70
2018-07-08T21:36:44.234Z,25.70
2018-07-08T21:39:11.461Z,25.70
2018-07-08T21:41:39.543Z,25.70
2018-07-08T21:44:07.104Z,25.70
2018-07-08T21:46:34.273Z,25.60
2018-07-08T21:49:01.450Z,25.60
2018-07-08T21:51:28.643Z,25.50
2018-07-08T21:53:55.792Z,25.50
2018-07-08T21:56:23.005Z,25.50
2018-07-08T21:58:50.342Z,25.50
2018-07-08T22:01:18.831Z,25.50
2018-07-08T22:03:46.452Z,25.40
2018-07-08T22:06:14.804Z,25.40
2018-07-08T22:08:42.022Z,25.30
2018-07-08T22:11:09.701Z,25.40
2018-07-08T22:13:37.705Z,25.30
2018-07-08T22:16:04.892Z,25.30
2018-07-08T22:18:32.486Z,25.30
2018-07-08T22:20:59.962Z,25.20
2018-07-08T22:23:27.169Z,25.20
2018-07-08T22:30:49.217Z,25.20
2018-07-08T22:33:16.402Z,25.20
2018-07-08T22:38:11.434Z,25.10
2018-07-08T22:43:06.227Z,25.10
2018-07-08T22:45:33.853Z,25.10
2018-07-08T22:48:01.372Z,25.10
2018-07-08T22:50:28.554Z,25.10
2018-07-08T22:52:55.731Z,25.00
2018-07-08T22:55:22.901Z,25.00
2018-07-08T22:57:50.485Z,25.00
2018-07-08T23:00:29.361Z,24.90
2018-07-08T23:03:10.814Z,24.90
2018-07-08T23:08:05.492Z,24.90
2018-07-08T23:10:32.673Z,24.90
2018-07-08T23:12:59.857Z,24.90
2018-07-08T23:15:27.074Z,24.90
2018-07-08T23:17:56.589Z,24.90
2018-07-08T23:20:23.771Z,24.80
2018-07-08T23:22:55.677Z,24.80
2018-07-08T23:25:23.173Z,24.80
2018-07-08T23:27:50.345Z,24.80
2018-07-08T23:30:17.528Z,24.80
2018-07-08T23:32:45.046Z,24.70
2018-07-08T23:35:12.217Z,24.70
2018-07-08T23:37:39.389Z,24.70
2018-07-08T23:40:06.570Z,24.70
2018-07-08T23:42:34.081Z,24.70
2018-07-08T23:50:00.155Z,24.60
2018-07-08T23:52:27.485Z,24.60
2018-07-08T23:54:54.690Z,24.60
2018-07-08T23:59:49.418Z,24.60
